Time;durP1;ratioP1;P1;durP2;ratioP2;P2;SDS_P1;SDS_P2;PMS_P1;PMS_P2;Temp;Humidity;BMP_temperature;BMP_pressure;BME280_temperature;BME280_humidity;BME280_pressure;Samples;Min_cycle;Max_cycle;Signal;HPM_P1;HPM_P2
2021/03/18 00:02:08;;;;;;;19.80;13.40;;;5.60;94.50;;;;;;4975817;28;20498;-70
2021/03/18 00:04:34;;;;;;;19.92;13.82;;;5.50;94.10;;;;;;4978169;28;20031;-73
2021/03/18 00:07:00;;;;;;;17.52;12.68;;;5.60;94.90;;;;;;4980062;28;20023;-67
2021/03/18 00:09:26;;;;;;;20.60;12.55;;;5.60;95.10;;;;;;4979104;28;20074;-67
2021/03/18 00:11:53;;;;;;;18.55;12.38;;;5.50;94.80;;;;;;4979215;28;20376;-73
2021/03/18 00:14:23;;;;;;;21.73;14.07;;;5.50;95.20;;;;;;4979909;28;20469;-74
2021/03/18 00:16:49;;;;;;;18.42;12.52;;;5.50;95.10;;;;;;4980778;28;20077;-72
2021/03/18 00:19:16;;;;;;;22.42;12.85;;;5.50;95.30;;;;;;4981417;28;20023;-66
2021/03/18 00:21:42;;;;;;;19.67;13.13;;;5.40;95.70;;;;;;4982425;28;20042;-66
2021/03/18 00:24:08;;;;;;;21.13;13.13;;;5.50;95.30;;;;;;4980346;28;20405;-65
2021/03/18 00:26:35;;;;;;;21.38;13.40;;;5.40;95.90;;;;;;4979693;28;20014;-70
2021/03/18 00:29:03;;;;;;;19.02;12.60;;;5.40;96.00;;;;;;4981739;28;20029;-71
2021/03/18 00:31:31;;;;;;;21.00;13.68;;;5.40;96.40;;;;;;4980102;28;20377;-65
2021/03/18 00:33:58;;;;;;;18.75;12.57;;;5.40;96.40;;;;;;4979865;28;20077;-74
2021/03/18 00:36:26;;;;;;;19.58;13.10;;;5.30;96.40;;;;;;4979925;28;20484;-74
2021/03/18 00:38:52;;;;;;;19.63;13.48;;;5.30;96.70;;;;;;4978345;28;20015;-74
2021/03/18 00:41:20;;;;;;;19.88;12.93;;;5.20;97.00;;;;;;4980621;28;20035;-66
2021/03/18 00:43:46;;;;;;;21.42;13.85;;;5.20;97.80;;;;;;4979884;28;20031;-74
2021/03/18 00:46:12;;;;;;;43.17;26.25;;;5.10;98.00;;;;;;4978956;28;20035;-66
2021/03/18 00:48:38;;;;;;;35.60;21.35;;;5.10;99.00;;;;;;4978942;28;20027;-74
2021/03/18 00:51:08;;;;;;;30.48;19.92;;;5.10;98.20;;;;;;4980320;28;20051;-67
2021/03/18 00:53:38;;;;;;;20.20;13.55;;;5.00;98.10;;;;;;4978558;28;20019;-70
2021/03/18 00:56:12;;;;;;;23.67;15.35;;;5.00;98.40;;;;;;4978971;28;20023;-66
2021/03/18 00:58:47;;;;;;;31.80;20.13;;;5.00;98.60;;;;;;4979127;28;20362;-70
2021/03/18 01:01:15;;;;;;;21.20;13.88;;;5.00;99.00;;;;;;4979458;28;20031;-69
2021/03/18 01:03:41;;;;;;;22.23;14.80;;;5.10;98.50;;;;;;4978827;28;20014;-73
2021/03/18 01:06:09;;;;;;;29.52;19.42;;;4.90;98.60;;;;;;4979863;28;20595;-67
2021/03/18 01:08:36;;;;;;;27.77;18.77;;;5.00;98.90;;;;;;4980943;28;20349;-67
2021/03/18 01:11:07;;;;;;;33.95;20.88;;;5.10;98.80;;;;;;4981460;28;20035;-72
2021/03/18 01:13:35;;;;;;;27.75;17.77;;;5.00;99.00;;;;;;4981169;28;20023;-66
2021/03/18 01:16:08;;;;;;;28.65;19.05;;;4.90;98.80;;;;;;4979131;28;20015;-73
2021/03/18 01:18:46;;;;;;;28.60;17.75;;;5.00;99.00;;;;;;4981220;28;20051;-66
2021/03/18 01:21:14;;;;;;;26.27;16.65;;;5.00;99.00;;;;;;4978921;28;20027;-65
2021/03/18 01:23:40;;;;;;;28.48;18.70;;;4.90;98.90;;;;;;4979228;28;20057;-68
2021/03/18 01:26:09;;;;;;;44.35;24.60;;;4.90;99.10;;;;;;4979355;28;20031;-73
2021/03/18 01:28:35;;;;;;;66.82;35.92;;;4.90;98.80;;;;;;4979807;28;20114;-73
2021/03/18 01:31:03;;;;;;;64.47;35.03;;;4.90;98.70;;;;;;4979786;28;20027;-66
2021/03/18 01:33:30;;;;;;;54.38;29.65;;;5.00;99.10;;;;;;4978693;28;20047;-73
2021/03/18 01:36:00;;;;;;;50.55;29.45;;;5.00;98.90;;;;;;4982212;28;20027;-70
2021/03/18 01:38:28;;;;;;;42.22;25.10;;;5.00;98.70;;;;;;4979457;28;20035;-74
2021/03/18 01:40:54;;;;;;;34.65;21.35;;;4.90;98.50;;;;;;4978315;28;20528;-70
2021/03/18 01:43:24;;;;;;;42.97;25.55;;;4.90;98.90;;;;;;4981895;28;20019;-66
2021/03/18 01:45:50;;;;;;;31.63;19.40;;;5.00;98.90;;;;;;4982442;28;20033;-73
2021/03/18 01:48:16;;;;;;;37.92;22.58;;;5.00;98.80;;;;;;4981227;28;20042;-73
2021/03/18 01:50:43;;;;;;;33.08;19.83;;;4.90;98.80;;;;;;4980964;28;20057;-73
2021/03/18 01:53:09;;;;;;;32.92;20.85;;;5.00;99.10;;;;;;4979226;28;20405;-66
2021/03/18 01:55:43;;;;;;;29.75;17.25;;;4.90;98.80;;;;;;4978166;28;20023;-68
2021/03/18 01:58:11;;;;;;;20.10;14.52;;;4.90;99.20;;;;;;4979473;28;20415;-74
2021/03/18 02:00:39;;;;;;;29.40;19.63;;;4.80;99.20;;;;;;4977048;28;20034;-73
2021/03/18 02:03:06;;;;;;;23.17;14.98;;;4.70;99.70;;;;;;4976782;28;20019;-74
2021/03/18 02:05:33;;;;;;;21.90;14.93;;;4.70;99.80;;;;;;4979722;28;20358;-73
2021/03/18 02:08:00;;;;;;;39.67;23.00;;;4.80;99.90;;;;;;4978467;28;20023;-67
2021/03/18 02:10:31;;;;;;;27.95;18.00;;;4.70;99.90;;;;;;4979722;28;20395;-73
2021/03/18 02:12:58;;;;;;;23.83;15.00;;;4.70;99.90;;;;;;4978909;28;20023;-68
2021/03/18 02:15:31;;;;;;;26.35;16.90;;;4.60;99.90;;;;;;4980481;28;20026;-73
2021/03/18 02:18:07;;;;;;;24.85;15.70;;;4.50;99.90;;;;;;4980736;28;20081;-68
2021/03/18 02:20:55;;;;;;;23.55;15.88;;;4.60;99.90;;;;;;4982138;28;20369;-67
2021/03/18 02:24:06;;;;;;;25.17;16.08;;;4.40;99.90;;;;;;4981045;28;20058;-71
2021/03/18 02:26:38;;;;;;;24.52;15.98;;;4.40;99.90;;;;;;4980614;28;20019;-69
2021/03/18 02:29:40;;;;;;;22.08;15.02;;;4.30;99.90;;;;;;4981847;28;20369;-65
2021/03/18 02:32:43;;;;;;;26.55;15.43;;;4.30;99.90;;;;;;4981449;28;20062;-73
2021/03/18 02:35:15;;;;;;;26.90;17.38;;;4.00;99.90;;;;;;4980478;28;20023;-67
2021/03/18 02:37:45;;;;;;;23.88;14.50;;;4.00;99.90;;;;;;4979363;28;20424;-73
2021/03/18 02:40:17;;;;;;;28.88;18.15;;;4.00;99.90;;;;;;4978885;28;20033;-74
2021/03/18 02:42:48;;;;;;;28.63;18.13;;;4.00;99.90;;;;;;4978484;28;20031;-66
2021/03/18 02:45:16;;;;;;;29.98;18.13;;;3.90;99.90;;;;;;4979775;28;20034;-72
2021/03/18 02:47:43;;;;;;;33.70;20.70;;;3.70;99.90;;;;;;4981089;28;20374;-74
2021/03/18 02:50:10;;;;;;;28.13;18.48;;;3.70;99.90;;;;;;4976951;28;20086;-73
2021/03/18 02:52:40;;;;;;;30.52;20.08;;;3.70;99.90;;;;;;4979453;28;20165;-73
2021/03/18 02:55:07;;;;;;;33.00;21.05;;;3.70;99.90;;;;;;4982232;28;20157;-72
2021/03/18 02:57:36;;;;;;;35.30;21.90;;;3.70;99.90;;;;;;4977534;28;20361;-73
2021/03/18 03:00:06;;;;;;;32.33;20.85;;;3.80;99.90;;;;;;4981353;28;20019;-67
2021/03/18 03:02:33;;;;;;;29.90;19.67;;;3.80;99.90;;;;;;4978224;28;20022;-67
2021/03/18 03:05:00;;;;;;;38.28;24.85;;;4.00;99.90;;;;;;4975800;28;20015;-74
2021/03/18 03:07:28;;;;;;;33.30;20.35;;;3.80;99.90;;;;;;4977154;28;20019;-68
2021/03/18 03:09:57;;;;;;;31.77;20.08;;;3.80;99.90;;;;;;4978587;28;20051;-72
2021/03/18 03:12:26;;;;;;;37.92;23.83;;;3.80;99.90;;;;;;4979075;28;20481;-67
2021/03/18 03:14:54;;;;;;;29.65;19.20;;;3.70;99.90;;;;;;4980002;28;20033;-72
2021/03/18 03:17:22;;;;;;;28.88;18.20;;;3.90;99.90;;;;;;4979137;28;20023;-73
2021/03/18 03:19:49;;;;;;;31.63;20.48;;;3.90;99.90;;;;;;4980237;28;20480;-69
2021/03/18 03:22:16;;;;;;;52.72;29.45;;;3.90;99.90;;;;;;4977677;28;20081;-73
2021/03/18 03:24:44;;;;;;;41.78;25.33;;;4.00;99.90;;;;;;4977776;28;20035;-73
2021/03/18 03:27:11;;;;;;;54.60;32.00;;;4.00;99.90;;;;;;4978673;28;20030;-72
2021/03/18 03:29:41;;;;;;;42.50;27.58;;;4.00;99.90;;;;;;4975936;28;20031;-69
2021/03/18 03:32:09;;;;;;;40.25;24.27;;;4.00;99.90;;;;;;4976112;28;20398;-73
2021/03/18 03:34:36;;;;;;;34.03;23.35;;;4.10;99.90;;;;;;4978340;28;20027;-74
2021/03/18 03:37:04;;;;;;;36.85;23.23;;;4.00;99.90;;;;;;4975142;28;20023;-68
2021/03/18 03:39:31;;;;;;;36.75;22.92;;;3.90;99.90;;;;;;4979777;28;20130;-72
2021/03/18 03:41:57;;;;;;;37.95;23.73;;;4.00;99.90;;;;;;4980922;28;20026;-73
2021/03/18 03:44:23;;;;;;;38.05;24.73;;;4.00;99.90;;;;;;4982846;28;20053;-68
2021/03/18 03:46:49;;;;;;;32.63;21.13;;;3.90;99.90;;;;;;4979224;28;20412;-67
2021/03/18 03:49:15;;;;;;;33.22;19.70;;;3.90;99.90;;;;;;4979193;28;20030;-67
2021/03/18 03:51:53;;;;;;;31.02;20.92;;;3.90;99.90;;;;;;4977461;28;20072;-73
2021/03/18 03:54:22;;;;;;;36.70;23.25;;;3.90;99.90;;;;;;4978959;28;20085;-66
2021/03/18 03:57:05;;;;;;;37.50;22.70;;;3.90;99.90;;;;;;4979256;28;20023;-73
2021/03/18 03:59:34;;;;;;;32.83;22.02;;;3.80;99.90;;;;;;4977094;28;20062;-73
2021/03/18 04:02:02;;;;;;;40.33;24.88;;;3.70;99.90;;;;;;4979101;28;20023;-72
2021/03/18 04:04:29;;;;;;;34.88;22.02;;;3.70;99.90;;;;;;4978593;28;20027;-74
2021/03/18 04:07:01;;;;;;;37.38;22.90;;;3.70;99.90;;;;;;4979093;28;20085;-73
2021/03/18 04:09:29;;;;;;;37.03;21.85;;;3.70;99.90;;;;;;4978760;28;20029;-65
2021/03/18 04:11:56;;;;;;;37.97;23.40;;;3.50;99.90;;;;;;4977256;28;20110;-70
2021/03/18 04:14:28;;;;;;;37.22;22.33;;;3.60;99.90;;;;;;4979090;28;20019;-72
2021/03/18 04:16:57;;;;;;;35.30;25.50;;;3.70;99.90;;;;;;4978633;28;20030;-72
2021/03/18 04:19:24;;;;;;;38.67;24.52;;;3.70;99.90;;;;;;4979242;28;20015;-74
2021/03/18 04:21:52;;;;;;;37.78;22.88;;;3.80;99.90;;;;;;4980769;28;20023;-72
2021/03/18 04:24:19;;;;;;;35.65;21.33;;;3.70;99.90;;;;;;4978639;28;20038;-67
2021/03/18 04:26:47;;;;;;;35.25;22.60;;;3.50;99.90;;;;;;4979388;28;20067;-74
2021/03/18 04:29:14;;;;;;;31.98;20.05;;;3.50;99.90;;;;;;4978410;28;20043;-68
2021/03/18 04:31:42;;;;;;;34.63;21.30;;;3.60;99.90;;;;;;4978773;28;20031;-68
2021/03/18 04:34:11;;;;;;;33.85;21.52;;;3.50;99.90;;;;;;4978387;28;20030;-66
2021/03/18 04:36:38;;;;;;;41.42;23.08;;;3.60;99.90;;;;;;4977861;28;20026;-73
2021/03/18 04:39:06;;;;;;;43.30;25.30;;;3.50;99.90;;;;;;4978371;28;20540;-73
2021/03/18 04:41:33;;;;;;;35.72;21.67;;;3.30;99.90;;;;;;4978602;28;20102;-72
2021/03/18 04:44:01;;;;;;;40.00;23.20;;;3.40;99.90;;;;;;4979394;28;20046;-66
2021/03/18 04:46:28;;;;;;;39.45;23.40;;;3.30;99.90;;;;;;4978815;28;20031;-67
2021/03/18 04:49:00;;;;;;;36.25;22.50;;;3.30;99.90;;;;;;4978342;28;20019;-70
2021/03/18 04:51:26;;;;;;;44.55;26.67;;;3.30;99.90;;;;;;4977193;28;20489;-73
2021/03/18 04:53:54;;;;;;;40.38;25.45;;;3.30;99.90;;;;;;4978520;28;20027;-69
2021/03/18 04:56:21;;;;;;;54.03;31.63;;;3.30;99.90;;;;;;4979411;28;20424;-67
2021/03/18 04:58:48;;;;;;;54.05;31.30;;;3.30;99.90;;;;;;4978945;28;20030;-73
2021/03/18 05:01:17;;;;;;;66.40;37.20;;;3.30;99.90;;;;;;4978079;28;20027;-73
2021/03/18 05:03:47;;;;;;;49.75;28.55;;;3.40;99.90;;;;;;4977884;28;20019;-73
2021/03/18 05:06:14;;;;;;;46.72;29.15;;;3.40;99.90;;;;;;4977225;28;20081;-66
2021/03/18 05:08:41;;;;;;;39.13;25.15;;;3.30;99.90;;;;;;4977006;28;20027;-73
2021/03/18 05:11:09;;;;;;;35.38;21.85;;;3.30;99.90;;;;;;4978057;28;20520;-71
2021/03/18 05:13:36;;;;;;;54.33;32.58;;;3.10;99.90;;;;;;4977088;28;20542;-72
2021/03/18 05:16:03;;;;;;;37.13;23.75;;;3.20;99.90;;;;;;4977264;28;20035;-73
2021/03/18 05:18:32;;;;;;;40.17;24.67;;;3.30;99.90;;;;;;4976054;28;20030;-74
2021/03/18 05:21:01;;;;;;;36.63;24.00;;;3.20;99.90;;;;;;4978069;28;20030;-71
2021/03/18 05:23:27;;;;;;;38.30;23.20;;;3.30;99.90;;;;;;4977364;28;20015;-73
2021/03/18 05:25:54;;;;;;;36.65;22.92;;;3.30;99.90;;;;;;4977310;28;20027;-74
2021/03/18 05:28:20;;;;;;;65.90;39.95;;;3.10;99.90;;;;;;4977252;28;20023;-73
2021/03/18 05:30:46;;;;;;;42.50;27.63;;;3.10;99.90;;;;;;4977459;28;20041;-73
2021/03/18 05:33:12;;;;;;;41.47;26.30;;;3.30;99.90;;;;;;4979519;28;20023;-73
2021/03/18 05:35:41;;;;;;;37.88;24.38;;;3.30;99.90;;;;;;4978987;28;20027;-68
2021/03/18 05:38:08;;;;;;;40.35;26.50;;;3.20;99.90;;;;;;4978113;28;20109;-71
2021/03/18 05:40:36;;;;;;;40.35;25.63;;;3.20;99.90;;;;;;4977574;28;20023;-72
2021/03/18 05:43:03;;;;;;;45.97;30.50;;;3.20;99.90;;;;;;4976190;28;20430;-73
2021/03/18 05:45:30;;;;;;;50.00;30.92;;;3.20;99.90;;;;;;4977814;28;20034;-66
2021/03/18 05:47:57;;;;;;;41.92;26.40;;;3.30;99.90;;;;;;4977495;28;20023;-73
2021/03/18 05:50:24;;;;;;;43.28;25.05;;;3.20;99.90;;;;;;4978033;28;20112;-74
2021/03/18 05:52:52;;;;;;;46.45;27.90;;;3.20;99.90;;;;;;4977377;28;20038;-73
2021/03/18 05:55:22;;;;;;;39.60;25.10;;;3.20;99.90;;;;;;4977047;28;20030;-72
2021/03/18 05:57:51;;;;;;;45.03;28.88;;;3.20;99.90;;;;;;4976301;28;20373;-72
2021/03/18 06:00:18;;;;;;;45.95;30.17;;;3.20;99.90;;;;;;4977510;28;20113;-67
2021/03/18 06:02:44;;;;;;;36.83;23.17;;;3.30;99.90;;;;;;4976251;28;20050;-72
2021/03/18 06:05:12;;;;;;;45.40;26.65;;;3.30;99.90;;;;;;4977052;28;20031;-68
2021/03/18 06:07:41;;;;;;;37.60;23.50;;;3.20;99.90;;;;;;4977264;28;20038;-67
2021/03/18 06:10:10;;;;;;;49.08;30.20;;;3.30;99.90;;;;;;4978524;28;20019;-72
2021/03/18 06:12:38;;;;;;;41.03;24.98;;;3.10;99.90;;;;;;4976889;28;20485;-68
2021/03/18 06:15:12;;;;;;;41.03;24.58;;;3.20;99.90;;;;;;4977846;28;20369;-73
2021/03/18 06:17:38;;;;;;;;;;;3.20;99.90;;;;;;4977568;28;20026;-67
2021/03/18 06:20:11;;;;;;;38.17;23.10;;;3.30;99.90;;;;;;4976190;28;19910;-73
2021/03/18 06:22:43;;;;;;;45.90;27.83;;;3.40;99.90;;;;;;4976196;28;20473;-66
2021/03/18 06:25:28;;;;;;;42.25;25.50;;;3.30;99.90;;;;;;4977895;28;20031;-67
2021/03/18 06:28:14;;;;;;;57.90;33.22;;;3.30;99.90;;;;;;4976552;28;20050;-67
2021/03/18 06:31:15;;;;;;;70.38;37.78;;;3.30;99.90;;;;;;4977124;28;20042;-66
2021/03/18 06:33:49;;;;;;;52.08;29.98;;;3.30;99.90;;;;;;4935577;29;20036;-68
2021/03/18 06:36:25;;;;;;;50.97;31.92;;;3.30;99.90;;;;;;4936036;29;20043;-71
2021/03/18 06:39:16;;;;;;;55.50;31.30;;;3.50;99.90;;;;;;4935988;29;20075;-73
2021/03/18 06:41:47;;;;;;;48.50;28.48;;;3.50;99.90;;;;;;4936155;29;20413;-72
2021/03/18 06:44:29;;;;;;;75.35;42.40;;;3.50;99.90;;;;;;4936715;29;20039;-67
2021/03/18 06:46:57;;;;;;;71.10;41.38;;;3.40;99.90;;;;;;4936987;29;20039;-68
2021/03/18 06:49:26;;;;;;;61.85;37.72;;;3.50;99.90;;;;;;4938640;29;20040;-73
2021/03/18 06:52:09;;;;;;;43.53;27.92;;;3.50;99.90;;;;;;4936703;29;20074;-74
2021/03/18 06:54:42;;;;;;;44.60;27.25;;;3.60;99.90;;;;;;4948930;29;20035;-73
2021/03/18 06:57:09;;;;;;;43.58;27.08;;;3.70;99.90;;;;;;4956604;29;20087;-75
2021/03/18 06:59:40;;;;;;;43.25;27.50;;;3.90;99.90;;;;;;4955653;29;20019;-71
2021/03/18 07:02:13;;;;;;;49.95;26.80;;;3.90;99.90;;;;;;4957381;29;20038;-74
2021/03/18 07:04:43;;;;;;;56.22;32.00;;;3.80;99.90;;;;;;4957015;29;20031;-68
2021/03/18 07:07:11;;;;;;;46.88;27.15;;;3.80;99.90;;;;;;4956348;29;20035;-68
2021/03/18 07:09:39;;;;;;;50.58;30.77;;;3.80;99.90;;;;;;4981204;28;20035;-66
2021/03/18 07:12:13;;;;;;;58.33;34.92;;;3.80;99.90;;;;;;4995005;28;20424;-72
2021/03/18 07:14:46;;;;;;;52.97;31.02;;;3.90;99.90;;;;;;4997052;28;20033;-70
2021/03/18 07:17:34;;;;;;;49.53;30.23;;;4.00;99.90;;;;;;4998047;28;20034;-67
2021/03/18 07:20:16;;;;;;;52.15;30.63;;;4.10;99.90;;;;;;4995781;28;20033;-66
2021/03/18 07:22:45;;;;;;;39.00;25.48;;;4.10;99.90;;;;;;4995204;28;20103;-74
2021/03/18 07:25:13;;;;;;;218.63;141.82;;;4.20;99.90;;;;;;4996792;28;20038;-71
2021/03/18 07:27:45;;;;;;;49.72;32.45;;;4.20;99.90;;;;;;4995506;28;20029;-66
2021/03/18 07:30:30;;;;;;;160.10;113.70;;;4.20;99.90;;;;;;4994403;28;20035;-69
2021/03/18 07:32:58;;;;;;;75.38;48.47;;;4.30;99.90;;;;;;4998721;28;20528;-67
2021/03/18 07:35:25;;;;;;;93.50;78.57;;;4.30;99.90;;;;;;4998260;28;20054;-75
2021/03/18 07:37:54;;;;;;;41.80;28.95;;;4.40;99.90;;;;;;4997297;28;20027;-66
2021/03/18 07:40:21;;;;;;;38.60;26.48;;;4.30;99.90;;;;;;4997383;28;20396;-65
2021/03/18 07:42:49;;;;;;;72.97;51.47;;;4.50;99.90;;;;;;4996764;28;20057;-68
2021/03/18 07:45:18;;;;;;;42.28;28.45;;;4.60;99.90;;;;;;4995720;28;20038;-69
2021/03/18 07:47:46;;;;;;;29.65;19.60;;;4.70;99.90;;;;;;4992113;28;20421;-67
2021/03/18 07:50:14;;;;;;;29.73;19.88;;;4.70;99.90;;;;;;4994951;28;20058;-65
2021/03/18 07:52:44;;;;;;;26.38;19.30;;;4.60;99.90;;;;;;4994329;28;20785;-71
2021/03/18 07:55:15;;;;;;;28.60;18.20;;;4.60;99.90;;;;;;4993864;28;20108;-73
2021/03/18 07:57:46;;;;;;;68.28;43.30;;;4.70;99.90;;;;;;4997862;28;20038;-68
2021/03/18 08:00:14;;;;;;;35.47;24.73;;;4.70;99.90;;;;;;4998971;28;20030;-74
2021/03/18 08:02:40;;;;;;;40.75;27.55;;;4.70;99.90;;;;;;4998608;28;20025;-71
2021/03/18 08:05:07;;;;;;;42.75;26.17;;;4.60;99.90;;;;;;4998596;28;20105;-66
2021/03/18 08:07:46;;;;;;;133.77;67.90;;;4.40;99.90;;;;;;4997751;28;20109;-65
2021/03/18 08:10:23;;;;;;;89.70;37.58;;;4.50;99.90;;;;;;4999378;28;20019;-75
2021/03/18 08:12:52;;;;;;;92.03;41.92;;;4.40;99.90;;;;;;4997143;28;20101;-74
2021/03/18 08:15:25;;;;;;;57.90;30.13;;;4.50;99.90;;;;;;4997949;28;20530;-66
2021/03/18 08:17:55;;;;;;;45.78;24.67;;;4.40;99.90;;;;;;4993393;28;20026;-66
2021/03/18 08:20:40;;;;;;;39.25;25.92;;;4.40;99.90;;;;;;4991038;28;20530;-66
2021/03/18 08:23:24;;;;;;;47.78;29.15;;;4.50;99.90;;;;;;4988748;28;20488;-66
2021/03/18 08:25:59;;;;;;;40.15;27.38;;;4.50;99.90;;;;;;4991299;28;20065;-65
2021/03/18 08:28:55;;;;;;;44.63;28.55;;;4.70;99.90;;;;;;4995784;28;20022;-67
2021/03/18 08:31:49;;;;;;;43.90;27.85;;;4.70;99.90;;;;;;4996175;28;20030;-66
2021/03/18 08:34:17;;;;;;;35.13;23.92;;;4.80;99.90;;;;;;4995218;28;20017;-66
2021/03/18 08:36:54;;;;;;;45.20;25.85;;;5.00;99.90;;;;;;4997110;28;20457;-70
2021/03/18 08:39:38;;;;;;;50.13;28.63;;;5.10;99.90;;;;;;4994959;28;20033;-70
2021/03/18 08:42:25;;;;;;;30.65;20.85;;;5.10;99.90;;;;;;4994831;28;20022;-64
2021/03/18 08:44:51;;;;;;;44.13;25.33;;;5.10;99.90;;;;;;4995569;28;20023;-64
2021/03/18 08:47:17;;;;;;;50.03;28.00;;;5.10;99.90;;;;;;4995496;28;20033;-66
2021/03/18 08:49:44;;;;;;;30.17;19.90;;;5.00;99.90;;;;;;4994650;28;20523;-65
2021/03/18 08:52:19;;;;;;;30.55;20.50;;;4.80;99.90;;;;;;4998825;28;20061;-70
2021/03/18 08:54:51;;;;;;;32.28;21.75;;;4.80;99.90;;;;;;5001423;28;20030;-75
2021/03/18 08:57:20;;;;;;;52.05;31.33;;;4.70;99.90;;;;;;5002601;28;20424;-68
2021/03/18 08:59:49;;;;;;;62.33;33.63;;;4.70;99.90;;;;;;5003105;28;20380;-69
2021/03/18 09:02:17;;;;;;;45.88;26.05;;;4.70;99.90;;;;;;5001345;28;20053;-66
2021/03/18 09:04:50;;;;;;;37.45;22.90;;;4.70;99.90;;;;;;5000962;28;20005;-75
2021/03/18 09:07:21;;;;;;;35.78;23.10;;;4.70;99.90;;;;;;5002483;28;20122;-73
2021/03/18 09:09:58;;;;;;;36.38;23.33;;;4.60;99.90;;;;;;5002040;28;20019;-69
2021/03/18 09:12:24;;;;;;;42.72;27.95;;;4.50;99.90;;;;;;4999485;28;20368;-67
2021/03/18 09:14:50;;;;;;;42.60;27.23;;;4.60;99.90;;;;;;5000901;28;20002;-75
2021/03/18 09:17:16;;;;;;;36.60;25.20;;;4.60;99.90;;;;;;5000369;28;20479;-71
2021/03/18 09:19:46;;;;;;;63.53;33.90;;;4.60;99.90;;;;;;4996764;28;20080;-71
2021/03/18 09:22:23;;;;;;;60.75;33.88;;;4.60;99.90;;;;;;4997042;28;20026;-73
2021/03/18 09:24:50;;;;;;;43.47;28.88;;;4.60;99.90;;;;;;4997331;28;20018;-65
2021/03/18 09:27:16;;;;;;;56.50;32.75;;;4.60;99.90;;;;;;4996426;28;20062;-75
2021/03/18 09:29:43;;;;;;;51.63;31.50;;;4.60;99.90;;;;;;4998587;28;20026;-66
2021/03/18 09:32:11;;;;;;;61.30;34.40;;;4.70;99.90;;;;;;4996023;28;20473;-68
2021/03/18 09:34:39;;;;;;;115.13;74.50;;;4.70;99.90;;;;;;4996872;28;20042;-75
2021/03/18 09:37:05;;;;;;;83.72;48.30;;;4.70;99.90;;;;;;4997323;28;20061;-74
2021/03/18 09:39:31;;;;;;;111.35;65.00;;;4.60;99.90;;;;;;4996909;28;20026;-75
2021/03/18 09:42:01;;;;;;;67.85;40.25;;;4.70;99.90;;;;;;4996669;28;20480;-74
2021/03/18 09:44:30;;;;;;;166.27;91.97;;;4.70;99.90;;;;;;4996286;28;20034;-67
2021/03/18 09:46:57;;;;;;;71.60;44.00;;;4.90;99.90;;;;;;4997195;28;20022;-65
2021/03/18 09:49:38;;;;;;;56.00;35.70;;;4.90;99.90;;;;;;4994957;28;20015;-74
2021/03/18 09:52:11;;;;;;;45.70;30.17;;;5.10;99.90;;;;;;4996436;28;20038;-74
2021/03/18 09:54:37;;;;;;;52.03;31.27;;;5.00;99.90;;;;;;4996006;28;20022;-65
2021/03/18 09:57:06;;;;;;;60.25;34.20;;;5.00;99.90;;;;;;4995843;28;20022;-74
2021/03/18 09:59:33;;;;;;;59.72;35.22;;;4.80;99.90;;;;;;4996591;28;20077;-73
2021/03/18 10:01:59;;;;;;;56.38;35.10;;;4.70;99.90;;;;;;4997431;28;20053;-65
2021/03/18 10:04:26;;;;;;;41.67;27.17;;;4.80;99.90;;;;;;4996840;28;20413;-75
2021/03/18 10:06:58;;;;;;;43.63;26.95;;;4.90;99.90;;;;;;4995989;28;20023;-74
2021/03/18 10:09:31;;;;;;;50.22;32.83;;;4.80;99.90;;;;;;4996420;28;20034;-75
2021/03/18 10:12:05;;;;;;;54.93;36.93;;;4.80;99.90;;;;;;4996185;28;20472;-73
2021/03/18 10:14:35;;;;;;;50.28;32.85;;;4.90;99.90;;;;;;4995744;28;20260;-73
2021/03/18 10:17:03;;;;;;;40.78;25.20;;;5.00;99.90;;;;;;4995822;28;20029;-73
2021/03/18 10:19:34;;;;;;;31.63;22.20;;;5.10;99.90;;;;;;4995961;28;20027;-72
2021/03/18 10:22:04;;;;;;;38.22;23.92;;;5.10;99.90;;;;;;4996571;28;20030;-74
2021/03/18 10:24:30;;;;;;;49.53;31.90;;;5.00;99.90;;;;;;4995818;28;20014;-65
2021/03/18 10:27:10;;;;;;;35.20;24.42;;;5.00;99.90;;;;;;4996628;28;20588;-70
2021/03/18 10:29:36;;;;;;;39.20;25.92;;;5.00;99.90;;;;;;4997123;28;20018;-73
2021/03/18 10:32:10;;;;;;;45.25;29.23;;;4.90;99.90;;;;;;4995406;28;20057;-72
2021/03/18 10:34:36;;;;;;;31.47;22.07;;;5.00;99.90;;;;;;4995995;28;20465;-65
2021/03/18 10:37:02;;;;;;;28.35;20.38;;;4.90;99.90;;;;;;4995747;28;20033;-73
2021/03/18 10:39:29;;;;;;;27.67;19.38;;;4.80;99.90;;;;;;4995910;28;20023;-67
2021/03/18 10:41:58;;;;;;;25.13;18.27;;;4.80;99.90;;;;;;4996975;28;20026;-73
2021/03/18 10:44:36;;;;;;;39.95;25.65;;;4.70;99.90;;;;;;4997594;28;20046;-73
2021/03/18 10:47:39;;;;;;;39.13;23.73;;;4.60;99.90;;;;;;4995313;28;20030;-74
2021/03/18 10:50:07;;;;;;;36.45;23.75;;;4.40;99.90;;;;;;4973515;28;20054;-77
2021/03/18 10:52:36;;;;;;;40.63;24.95;;;4.40;99.90;;;;;;4960378;28;20070;-71
2021/03/18 10:55:03;;;;;;;50.33;28.40;;;4.40;99.90;;;;;;4977476;28;20110;-72
2021/03/18 10:57:29;;;;;;;28.05;18.33;;;4.30;99.90;;;;;;4975758;28;20066;-66
2021/03/18 10:59:59;;;;;;;39.83;24.98;;;4.30;99.90;;;;;;4975531;28;20051;-67
2021/03/18 11:02:29;;;;;;;28.48;18.83;;;4.30;99.90;;;;;;4976395;28;20540;-75
2021/03/18 11:05:03;;;;;;;55.75;34.08;;;4.50;99.90;;;;;;4978797;28;20022;-67
2021/03/18 11:07:30;;;;;;;50.10;29.43;;;4.40;99.90;;;;;;4961066;28;20098;-68
2021/03/18 11:10:12;;;;;;;46.42;28.50;;;4.50;99.90;;;;;;4974547;28;20656;-69
2021/03/18 11:12:55;;;;;;;38.40;25.25;;;4.60;99.90;;;;;;4974216;28;20648;-71
2021/03/18 11:15:22;;;;;;;42.40;26.92;;;4.60;99.90;;;;;;4968109;28;20509;-69
2021/03/18 11:18:03;;;;;;;40.20;24.00;;;4.80;99.90;;;;;;4946046;28;20104;-68
2021/03/18 11:20:34;;;;;;;36.63;24.00;;;4.90;99.90;;;;;;4962708;28;20117;-65
2021/03/18 11:23:00;;;;;;;33.40;21.88;;;5.00;99.90;;;;;;4971770;28;20094;-68
2021/03/18 11:25:26;;;;;;;76.90;44.03;;;5.10;99.90;;;;;;4979313;28;20043;-76
2021/03/18 11:27:53;;;;;;;558.28;287.70;;;5.20;99.90;;;;;;4978405;28;20042;-75
2021/03/18 11:30:36;;;;;;;120.35;66.35;;;5.20;99.90;;;;;;4979439;28;20086;-75
2021/03/18 11:33:28;;;;;;;50.42;33.75;;;5.20;99.90;;;;;;4977918;28;20039;-68
2021/03/18 11:35:54;;;;;;;30.38;20.20;;;5.00;99.90;;;;;;4978488;28;20496;-65
2021/03/18 11:38:20;;;;;;;23.67;17.80;;;5.00;99.90;;;;;;4976531;28;20050;-68
2021/03/18 11:40:47;;;;;;;24.48;17.38;;;4.90;99.90;;;;;;4977003;28;20030;-70
2021/03/18 11:43:14;;;;;;;25.63;17.77;;;4.80;99.90;;;;;;4978072;28;20034;-75
2021/03/18 11:45:40;;;;;;;29.33;20.38;;;4.70;99.90;;;;;;4976716;28;20374;-66
2021/03/18 11:48:09;;;;;;;23.65;17.90;;;4.70;99.90;;;;;;4976281;28;20030;-71
2021/03/18 11:50:35;;;;;;;25.55;17.92;;;4.70;99.90;;;;;;4987445;28;20084;-67
2021/03/18 11:53:01;;;;;;;23.17;17.25;;;4.60;99.90;;;;;;5001104;28;20023;-70
2021/03/18 11:55:28;;;;;;;38.67;25.58;;;4.60;99.90;;;;;;5000838;28;20022;-70
2021/03/18 11:57:57;;;;;;;48.80;29.88;;;4.60;99.90;;;;;;5000625;28;20344;-75
2021/03/18 12:00:28;;;;;;;47.83;30.50;;;4.60;99.90;;;;;;4998050;28;20467;-75
2021/03/18 12:03:00;;;;;;;43.58;28.42;;;4.70;99.90;;;;;;5002438;28;20046;-68
2021/03/18 12:05:26;;;;;;;44.03;27.25;;;4.70;99.90;;;;;;4999266;28;20027;-74
2021/03/18 12:07:53;;;;;;;61.47;36.42;;;4.70;99.90;;;;;;5000374;28;20145;-66
2021/03/18 12:10:19;;;;;;;81.97;45.25;;;4.80;99.90;;;;;;4999161;28;20066;-74
2021/03/18 12:12:45;;;;;;;73.55;45.72;;;4.80;99.90;;;;;;4998835;28;20026;-69
2021/03/18 12:15:12;;;;;;;47.03;28.98;;;4.80;99.90;;;;;;4998947;28;20030;-75
2021/03/18 12:17:39;;;;;;;36.80;23.83;;;4.80;99.90;;;;;;4998112;28;20037;-74
2021/03/18 12:20:09;;;;;;;38.42;24.35;;;4.80;99.90;;;;;;4998506;28;20062;-75
2021/03/18 12:22:37;;;;;;;31.23;21.17;;;4.90;99.90;;;;;;5000011;28;20038;-72
2021/03/18 12:25:06;;;;;;;77.20;38.33;;;4.90;99.90;;;;;;4999011;28;20369;-75
2021/03/18 12:27:33;;;;;;;75.05;37.00;;;4.90;99.90;;;;;;4998957;28;20036;-75
2021/03/18 12:29:59;;;;;;;42.17;25.48;;;5.00;99.90;;;;;;4997320;28;20026;-68
2021/03/18 12:32:25;;;;;;;38.90;25.10;;;5.10;99.90;;;;;;4997780;28;20027;-75
2021/03/18 12:34:51;;;;;;;32.05;21.90;;;5.10;99.90;;;;;;4997468;28;20401;-74
2021/03/18 12:37:17;;;;;;;38.45;25.25;;;5.20;99.90;;;;;;4997838;28;20076;-68
2021/03/18 12:39:45;;;;;;;86.63;41.35;;;5.20;99.90;;;;;;4999188;28;20472;-68
2021/03/18 12:42:12;;;;;;;70.70;37.40;;;5.30;99.90;;;;;;5002862;28;20034;-66
2021/03/18 12:44:39;;;;;;;39.22;25.02;;;5.30;99.90;;;;;;5000188;28;20491;-74
2021/03/18 12:47:07;;;;;;;47.88;29.23;;;5.40;99.90;;;;;;4997998;28;20102;-74
2021/03/18 12:49:33;;;;;;;69.13;39.78;;;5.40;99.90;;;;;;4998059;28;20034;-68
2021/03/18 12:51:59;;;;;;;52.55;33.20;;;5.40;99.90;;;;;;4999295;28;20514;-67